createdAt,value
2023-06-29T00:01:12.602Z,15.88
2023-06-29T00:06:15.446Z,12.65
2023-06-29T00:11:18.408Z,12.25
2023-06-29T00:16:23.912Z,14.52
2023-06-29T00:21:59.148Z,11.85
2023-06-29T00:27:02.028Z,11.15
2023-06-29T00:32:07.447Z,9.48
2023-06-29T00:37:10.267Z,12.32
2023-06-29T00:42:13.825Z,12.75
2023-06-29T00:47:18.049Z,13.50
2023-06-29T00:52:21.678Z,14.82
2023-06-29T00:57:25.254Z,10.00
2023-06-29T01:02:31.139Z,11.85
2023-06-29T01:07:39.078Z,10.23
2023-06-29T01:12:42.728Z,12.48
2023-06-29T01:17:47.714Z,10.27
2023-06-29T01:22:58.174Z,13.20
2023-06-29T01:28:07.405Z,11.07
2023-06-29T01:33:11.719Z,11.93
2023-06-29T01:38:17.896Z,12.40
2023-06-29T01:43:23.157Z,11.32
2023-06-29T01:48:26.586Z,13.80
2023-06-29T01:53:31.872Z,13.85
2023-06-29T01:58:37.130Z,10.85
2023-06-29T02:03:40.887Z,11.13
2023-06-29T02:08:43.993Z,10.52
2023-06-29T02:13:48.538Z,11.23
2023-06-29T02:18:51.413Z,9.05
2023-06-29T02:23:54.267Z,10.68
2023-06-29T02:28:58.525Z,14.32
2023-06-29T02:34:01.334Z,16.10
2023-06-29T02:39:05.792Z,9.82
2023-06-29T02:44:10.380Z,13.48
2023-06-29T02:49:13.515Z,10.73
2023-06-29T02:54:17.340Z,11.95
2023-06-29T02:59:22.856Z,10.63
2023-06-29T03:04:25.640Z,10.05
2023-06-29T03:09:30.452Z,10.52
2023-06-29T03:14:34.617Z,8.82
2023-06-29T03:19:37.580Z,12.43
2023-06-29T03:24:40.432Z,10.35
2023-06-29T03:29:44.770Z,8.73
2023-06-29T03:34:47.757Z,10.95
2023-06-29T03:39:50.623Z,10.50
2023-06-29T03:44:54.822Z,14.50
2023-06-29T03:49:57.676Z,13.27
2023-06-29T03:55:00.378Z,11.35
2023-06-29T04:00:05.291Z,13.27
2023-06-29T04:05:15.554Z,12.40
2023-06-29T04:10:18.455Z,10.95
2023-06-29T04:15:22.948Z,8.93
2023-06-29T04:20:25.777Z,11.02
2023-06-29T04:25:28.577Z,7.65
2023-06-29T04:30:32.806Z,7.90
2023-06-29T04:35:37.057Z,11.93
2023-06-29T04:40:40.104Z,10.63
2023-06-29T04:45:44.476Z,13.35
2023-06-29T04:50:47.499Z,8.02
2023-06-29T04:55:50.316Z,9.32
2023-06-29T05:00:55.202Z,7.75
2023-06-29T05:05:58.009Z,11.70
2023-06-29T05:11:00.881Z,10.15
2023-06-29T05:16:05.833Z,11.35
2023-06-29T05:21:08.852Z,7.57
2023-06-29T05:26:11.754Z,8.75
2023-06-29T05:31:16.695Z,8.63
2023-06-29T05:43:00.317Z,8.20
2023-06-29T05:48:04.652Z,7.13
2023-06-29T05:53:21.562Z,7.75
2023-06-29T05:58:25.097Z,9.77
2023-06-29T06:03:30.105Z,10.02
2023-06-29T06:08:32.932Z,8.38
2023-06-29T06:13:35.655Z,8.32
2023-06-29T06:18:39.787Z,7.78
2023-06-29T06:23:42.596Z,9.32
2023-06-29T06:28:45.447Z,8.43
2023-06-29T06:33:53.788Z,7.72
2023-06-29T06:38:56.657Z,7.20
2023-06-29T06:43:59.790Z,7.93
2023-06-29T06:49:04.666Z,7.15
2023-06-29T06:54:22.846Z,8.13
2023-06-29T06:59:25.760Z,9.50
2023-06-29T07:10:08.382Z,7.28
2023-06-29T07:16:26.694Z,9.77
2023-06-29T07:27:18.032Z,11.52
2023-06-29T07:32:20.795Z,9.88
2023-06-29T07:37:24.265Z,7.50
2023-06-29T07:42:38.851Z,8.73
2023-06-29T07:53:56.359Z,8.05
2023-06-29T07:59:00.558Z,9.68
2023-06-29T08:04:04.912Z,7.75
2023-06-29T08:09:08.179Z,6.82
2023-06-29T08:14:15.218Z,6.57
2023-06-29T08:19:18.462Z,8.35
2023-06-29T08:24:21.188Z,5.32
2023-06-29T08:29:25.430Z,5.95
2023-06-29T08:34:28.477Z,10.13
2023-06-29T08:39:31.177Z,7.78
2023-06-29T08:44:35.524Z,6.95
2023-06-29T08:50:08.555Z,6.03
2023-06-29T08:55:11.274Z,6.53
2023-06-29T09:00:16.748Z,7.15
2023-06-29T09:05:20.561Z,6.82
2023-06-29T09:10:23.728Z,9.23
2023-06-29T09:15:29.415Z,10.45
2023-06-29T09:20:35.883Z,8.90
2023-06-29T09:25:41.390Z,10.98
2023-06-29T09:31:34.104Z,8.25
2023-06-29T09:36:37.043Z,6.40
2023-06-29T09:41:46.686Z,10.18
2023-06-29T09:52:05.113Z,10.75
2023-06-29T09:57:11.806Z,13.40
2023-06-29T10:02:16.820Z,10.10
2023-06-29T10:07:20.546Z,8.23
2023-06-29T10:12:24.814Z,9.20
2023-06-29T10:18:03.766Z,9.85
2023-06-29T10:23:07.646Z,10.07
2023-06-29T10:28:10.925Z,11.48
2023-06-29T10:33:15.927Z,10.63
2023-06-29T10:38:18.906Z,7.97
2023-06-29T10:43:22.078Z,10.38
2023-06-29T10:48:47.091Z,11.93
2023-06-29T10:53:51.091Z,6.95
2023-06-29T10:59:01.034Z,11.40
2023-06-29T11:04:05.905Z,8.73
2023-06-29T11:09:13.217Z,12.57
2023-06-29T11:14:16.271Z,10.57
2023-06-29T11:19:22.213Z,11.10
2023-06-29T11:24:25.083Z,12.30
2023-06-29T11:29:29.135Z,13.50
2023-06-29T11:34:33.364Z,10.18
2023-06-29T11:39:36.183Z,15.55
2023-06-29T11:44:39.005Z,11.38
2023-06-29T11:49:43.167Z,13.20
2023-06-29T11:54:48.069Z,11.13
2023-06-29T11:59:50.821Z,15.77
2023-06-29T12:04:59.655Z,16.83
2023-06-29T12:10:03.676Z,15.60
2023-06-29T12:15:13.653Z,17.25
2023-06-29T12:20:19.317Z,13.23
2023-06-29T12:25:23.487Z,13.32
2023-06-29T12:30:26.310Z,13.93
2023-06-29T12:35:33.659Z,11.85
2023-06-29T12:40:36.572Z,15.07
2023-06-29T12:45:39.453Z,16.90
2023-06-29T12:50:43.802Z,14.32
2023-06-29T12:55:47.362Z,15.50
2023-06-29T13:00:50.598Z,14.13
2023-06-29T13:05:54.728Z,12.60
2023-06-29T13:10:57.584Z,16.20
2023-06-29T13:16:00.427Z,12.57
2023-06-29T13:21:04.722Z,12.80
2023-06-29T13:26:07.566Z,11.85
2023-06-29T13:31:10.382Z,12.65
2023-06-29T13:36:14.596Z,15.23
2023-06-29T13:41:20.176Z,18.85
2023-06-29T13:46:22.914Z,17.75
2023-06-29T13:51:27.761Z,13.85
2023-06-29T13:56:32.689Z,18.33
2023-06-29T14:02:19.592Z,19.40
2023-06-29T14:07:24.051Z,18.30
2023-06-29T14:12:26.981Z,21.10
2023-06-29T14:17:40.722Z,21.30
2023-06-29T14:22:45.084Z,23.27
2023-06-29T14:27:47.985Z,23.13
2023-06-29T14:33:19.598Z,26.73
2023-06-29T14:39:29.131Z,24.30
2023-06-29T15:02:39.130Z,23.83
2023-06-29T15:07:42.645Z,24.40
2023-06-29T15:12:45.529Z,26.08
2023-06-29T15:17:49.667Z,24.25
2023-06-29T15:22:52.506Z,26.58
2023-06-29T15:27:57.097Z,25.67
2023-06-29T15:33:01.363Z,22.92
2023-06-29T15:38:04.235Z,26.23
2023-06-29T15:43:07.358Z,21.65
2023-06-29T15:48:11.670Z,29.05
2023-06-29T15:53:14.777Z,26.00
2023-06-29T15:58:17.767Z,25.83
2023-06-29T16:03:22.731Z,30.02
2023-06-29T16:08:29.390Z,24.45
2023-06-29T16:13:32.235Z,33.45
2023-06-29T16:18:36.444Z,29.20
2023-06-29T16:23:39.738Z,27.77
2023-06-29T16:28:42.554Z,34.88
2023-06-29T16:33:46.682Z,31.35
2023-06-29T16:38:49.471Z,32.17
2023-06-29T16:43:53.553Z,35.17
2023-06-29T16:48:59.869Z,27.33
2023-06-29T16:54:02.699Z,30.08
2023-06-29T16:59:05.543Z,28.92
2023-06-29T17:04:09.888Z,27.73
2023-06-29T17:09:12.757Z,31.45
2023-06-29T17:14:15.549Z,29.70
2023-06-29T17:19:19.637Z,27.63
2023-06-29T17:24:22.397Z,23.25
2023-06-29T17:29:25.127Z,30.42
2023-06-29T17:34:29.147Z,37.83
2023-06-29T17:39:31.857Z,23.88
2023-06-29T17:44:34.758Z,22.13
2023-06-29T17:49:38.913Z,20.60
2023-06-29T17:54:41.648Z,26.42
2023-06-29T17:59:53.380Z,28.63
2023-06-29T18:04:59.689Z,27.52
2023-06-29T18:10:06.049Z,26.85
2023-06-29T18:15:09.866Z,23.75
2023-06-29T18:26:57.782Z,26.52
2023-06-29T18:32:56.247Z,25.67
2023-06-29T18:38:00.499Z,26.90
2023-06-29T18:43:04.155Z,26.98
2023-06-29T18:48:07.344Z,28.70
2023-06-29T18:53:11.385Z,22.02
2023-06-29T18:58:14.100Z,28.33
2023-06-29T19:03:16.972Z,29.33
2023-06-29T19:08:23.691Z,26.50
2023-06-29T19:13:28.218Z,23.90
2023-06-29T19:18:31.032Z,28.33
2023-06-29T19:23:35.162Z,25.38
2023-06-29T19:35:09.620Z,27.42
2023-06-29T19:40:14.654Z,30.63
2023-06-29T19:45:17.541Z,30.45
2023-06-29T19:55:53.814Z,31.70
2023-06-29T20:27:32.006Z,31.58
2023-06-29T20:50:16.600Z,33.13
2023-06-29T21:14:34.510Z,34.38
2023-06-29T21:19:37.802Z,35.55
2023-06-29T21:24:42.548Z,34.90
2023-06-29T21:29:46.619Z,40.40
2023-06-29T21:34:49.742Z,37.63
2023-06-29T21:39:53.836Z,37.20
2023-06-29T21:44:56.531Z,38.42
2023-06-29T21:49:59.297Z,39.47
2023-06-29T21:55:03.348Z,36.22
2023-06-29T22:00:10.497Z,32.28
2023-06-29T22:05:19.088Z,28.60
2023-06-29T22:10:31.766Z,27.05
2023-06-29T22:15:35.857Z,31.88
2023-06-29T22:20:38.698Z,27.05
2023-06-29T22:25:42.792Z,28.58
2023-06-29T22:30:45.873Z,25.25
2023-06-29T22:35:49.433Z,26.85
2023-06-29T22:40:54.083Z,27.55
2023-06-29T22:45:56.881Z,23.35
2023-06-29T22:51:00.231Z,23.27
2023-06-29T22:56:07.230Z,23.17
2023-06-29T23:01:16.832Z,26.05
2023-06-29T23:06:19.550Z,24.58
2023-06-29T23:11:26.645Z,26.77
2023-06-29T23:16:47.059Z,24.15
2023-06-29T23:21:50.143Z,26.25
2023-06-29T23:26:54.291Z,26.33
2023-06-29T23:31:57.060Z,27.85
2023-06-29T23:36:59.827Z,27.58
2023-06-29T23:42:12.805Z,20.27
2023-06-29T23:47:15.569Z,15.43
2023-06-29T23:52:25.832Z,10.90
2023-06-29T23:57:30.242Z,6.07
